• Join FlightAware (Why Join?)
  • Login
  • US Flag 
04:21AM EDT


 

Airport Tracker/Info


-or-


 

Live Flight TrackerFlight Track Log ✈ UAL5822 ✈ 19-Apr-2013 ✈ KORD - KTYS

Flight Track Log - Related Links

Times and Time Zones

All times are in EDT time to prevent confusion due to time zone crossing. See the UAL5822 flight status page for this flight to view local times or setup timezone preferences in your user account.

Time Position Orientation Groundspeed Altitude Reporting Facility
EDT Latitude Longitude Course Direction KTS MPH feet Rate Location/Type
01:40PM 41.9333 -87.9000 180° South 142 163 2,600  Level Chicago TRACON
01:41PM 41.8833 -87.9000 180° South 198 228 4,400 1,740 Climbing Chicago TRACON
01:42PM 41.8167 -87.8667 160° South 259 298 6,100 1,740 Climbing Chicago TRACON
01:44PM 41.6819 -87.7636 150° Southeast 284 327 10,200 1,800 Climbing Chicago Center
01:45PM 41.6089 -87.7092 151° Southeast 297 342 12,100 1,680 Climbing Chicago Center
01:46PM 41.5336 -87.6544 151° Southeast 304 350 13,700 1,620 Climbing Chicago Center
01:47PM 41.4411 -87.5844 150° Southeast 314 361 15,500 1,500 Climbing Chicago Center
01:48PM 41.3547 -87.5617 169° South 314 361 16,900 1,260 Climbing Chicago Center
01:49PM 41.2647 -87.5447 172° South 321 369 18,200 1,080 Climbing Chicago Center
01:50PM 41.1700 -87.5269 172° South 334 384 19,200 960 Climbing Chicago Center
01:51PM 41.0722 -87.4986 168° South 352 405 20,300 960 Climbing Chicago Center
01:52PM 40.9719 -87.4722 169° South 362 417 21,300 1,020 Climbing Chicago Center
01:53PM 40.8481 -87.4394 169° South 374 430 22,500 1,020 Climbing Chicago Center
01:54PM 40.7458 -87.4106 168° South 376 433 23,500 960 Climbing Chicago Center
01:56PM 40.6132 -87.3667 180° South  Level FlightAware Approximate
01:56PM 40.5433 -87.3575 180° South 380 437 25,500  Level Indianapolis Center
01:57PM 40.4383 -87.3242 166° South 369 425 26,600 900 Climbing Chicago Center
01:58PM 40.3522 -87.2389 143° Southeast 378 435 27,500 960 Climbing Chicago Center
01:59PM 40.2497 -87.1444 145° Southeast 369 425 28,700 1,020 Climbing Chicago Center
02:00PM 40.1658 -87.0675 145° Southeast 367 422 29,700 960 Climbing Chicago Center
02:01PM 40.0853 -86.9936 145° Southeast 365 420 30,700 960 Climbing Indianapolis Center
02:02PM 40.0028 -86.9172 145° Southeast 363 418 31,700 960 Climbing Indianapolis Center
02:03PM 39.9189 -86.8464 147° Southeast 358 412 32,700 600 Climbing Indianapolis Center
02:04PM 39.8333 -86.7861 152° Southeast 350 403 33,000 120 Climbing Indianapolis Center
02:05PM 39.7439 -86.7194 150° Southeast 362 417 33,000  Level Indianapolis Center
02:06PM 39.6503 -86.6497 150° Southeast 380 437 33,000  Level Indianapolis Center
02:08PM 39.5572 -86.5811 150° Southeast 382 440 33,000  Level Indianapolis Center
02:09PM 39.4661 -86.5150 151° Southeast 376 433 33,000  Level Indianapolis Center
02:10PM 39.3578 -86.4358 151° Southeast 371 427 33,000  Level Indianapolis Center
02:11PM 39.2686 -86.3708 151° Southeast 367 422 33,000  Level Indianapolis Center
02:12PM 39.1783 -86.3064 151° Southeast 367 422 33,000  Level Indianapolis Center
02:13PM 39.0883 -86.2406 150° Southeast 368 423 33,000  Level Indianapolis Center
02:14PM 38.9981 -86.1756 151° Southeast 369 425 33,000  Level Indianapolis Center
02:15PM 38.9094 -86.1122 151° Southeast 365 420 33,000  Level Indianapolis Center
02:16PM 38.8208 -86.0489 151° Southeast 362 417 33,000  Level Indianapolis Center
02:17PM 38.7328 -85.9850 150° Southeast 362 417 33,000  Level Indianapolis Center
02:18PM 38.6456 -85.9239 151° Southeast 357 411 33,000  Level Indianapolis Center
02:19PM 38.5589 -85.8617 151° Southeast 354 407 33,000  Level Indianapolis Center
02:20PM 38.4561 -85.7881 151° Southeast 352 405 33,000  Level Indianapolis Center
02:21PM 38.3664 -85.7247 151° Southeast 355 409 33,000  Level Indianapolis Center
02:22PM 38.2781 -85.6647 152° Southeast 358 412 33,000  Level Indianapolis Center
02:23PM 38.1906 -85.6017 150° Southeast 358 412 33,000  Level Indianapolis Center
02:24PM 38.1022 -85.5400 151° Southeast 359 413 33,000  Level Indianapolis Center
02:25PM 38.0122 -85.4783 152° Southeast 362 417 33,000 -120 Level Indianapolis Center
02:26PM 37.9242 -85.4161 151° Southeast 361 415 32,800 -540 Descending Indianapolis Center
02:27PM 37.8381 -85.3567 151° Southeast 351 404 31,900 -900 Descending Indianapolis Center
02:28PM 37.7536 -85.2989 152° Southeast 332 382 31,000 -480 Descending Indianapolis Center
02:29PM 37.6719 -85.2414 151° Southeast 333 383 31,000  Level Indianapolis Center
02:30PM 37.5739 -85.1747 152° Southeast 341 392 31,000 -300 Level Indianapolis Center
02:31PM 37.4892 -85.1167 151° Southeast 346 398 30,400 -840 Descending Indianapolis Center
02:32PM 37.4019 -85.0553 151° Southeast 356 410 29,400 -1,080 Descending Indianapolis Center
02:33PM 37.3169 -84.9981 152° Southeast 348 400 28,300 -1,020 Descending Indianapolis Center
02:34PM 37.2325 -84.9400 151° Southeast 346 398 27,300 -1,020 Descending Indianapolis Center
02:35PM 37.1408 -84.8781 152° Southeast 368 423 26,300 -1,320 Descending Indianapolis Center
02:36PM 37.0419 -84.8122 152° Southeast 395 455 24,600 -1,860 Descending Indianapolis Center
02:37PM 36.9497 -84.7492 151° Southeast 384 442 22,600 -1,920 Descending Indianapolis Center
02:38PM 36.8364 -84.6731 152° Southeast 385 443 20,700 -1,740 Descending Indianapolis Center
02:39PM 36.7431 -84.6092 151° Southeast 383 441 19,100 -1,680 Descending Indianapolis Center
02:40PM 36.6528 -84.5489 152° Southeast 370 426 17,300 -1,860 Descending Indianapolis Center
02:41PM 36.5700 -84.4942 152° Southeast 359 413 15,400 -1,980 Descending Indianapolis Center
02:42PM 36.4806 -84.4358 152° Southeast 347 399 13,300 -1,680 Descending Indianapolis Center
02:44PM 36.3950 -84.3781 151° Southeast 347 399 12,000 -1,320 Descending Indianapolis Center
02:44PM 36.3625 -84.3611 157° South 346 398 11,600 -840 Descending Atlanta Center
02:45PM 36.2936 -84.3144 151° Southeast 317 365 11,000 -300 Descending Atlanta Center
02:46PM 36.2292 -84.2731 153° Southeast 280 322 11,100 -540 Climbing Atlanta Center
02:47PM 36.1686 -84.2317 151° Southeast 261 300 10,000 -1,080 Descending Atlanta Center
02:48PM 36.1167 -84.1956 151° Southeast 250 288 9,000 480 Descending Atlanta Center
02:49PM 36.0667 -84.1339 135° Southeast 245 282 11,000 -1,800 Climbing Atlanta Center
02:50PM 36.0417 -84.0414 108° East 262 302 5,400 -3,360 Descending Atlanta Center
02:51PM 36.0019 -83.9539 119° Southeast 262 302 4,300 -720 Descending Atlanta Center
02:52PM 35.9497 -83.9208 153° Southeast 247 284 4,000 -660 Descending Atlanta Center
02:53PM 35.8956 -83.8875 154° Southeast 239 275 3,000 -900 Descending Atlanta Center
02:54PM 35.8600 -83.9389 230° Southwest 173 199 2,200 -840 Descending Atlanta Center